Time;durP1;ratioP1;P1;durP2;ratioP2;P2;SDS_P1;SDS_P2;PMS_P1;PMS_P2;Temp;Humidity;BMP_temperature;BMP_pressure;BME280_temperature;BME280_humidity;BME280_pressure;Samples;Min_cycle;Max_cycle;Signal;HPM_P1;HPM_P2
2023/07/30 00:00:22;;;;;;;;;;;;;;;19.65;100.00;100747.38;5077454;28;19931;-57
2023/07/30 00:02:47;;;;;;;;;;;;;;;19.80;100.00;100765.66;5096024;28;19916;-58
2023/07/30 00:05:13;;;;;;;;;;;;;;;19.74;100.00;100760.19;5104629;28;19917;-58
2023/07/30 00:07:38;;;;;;;;;;;;;;;19.74;100.00;100757.47;5086585;28;19927;-55
2023/07/30 00:10:04;;;;;;;;;;;;;;;19.83;100.00;100760.50;5105425;28;19916;-56
2023/07/30 00:12:29;;;;;;;;;;;;;;;19.80;100.00;100754.81;5096989;28;19917;-56
2023/07/30 00:14:55;;;;;;;;;;;;;;;19.81;100.00;100759.16;5096238;28;19917;-55
2023/07/30 00:17:20;;;;;;;;;;;;;;;19.74;100.00;100753.94;5096782;28;19925;-57
2023/07/30 00:19:46;;;;;;;;;;;;;;;19.83;100.00;100755.06;5101081;28;19916;-57
2023/07/30 00:22:11;;;;;;;;;;;;;;;19.86;100.00;100753.75;5099099;28;19920;-55
2023/07/30 00:24:37;;;;;;;;;;;;;;;19.68;100.00;100754.97;5096947;28;19920;-56
2023/07/30 00:27:03;;;;;;;;;;;;;;;19.73;100.00;100761.28;5096519;28;19927;-57
2023/07/30 00:29:28;;;;;;;;;;;;;;;19.55;100.00;100759.75;5096796;28;19920;-58
2023/07/30 00:31:53;;;;;;;;;;;;;;;19.49;100.00;100763.50;5097715;28;20019;-58
2023/07/30 00:34:19;;;;;;;;;;;;;;;19.50;100.00;100767.84;5098790;28;19923;-56
2023/07/30 00:36:45;;;;;;;;;;;;;;;19.71;100.00;100762.59;5096395;28;20307;-56
2023/07/30 00:39:11;;;;;;;;;;;;;;;19.51;100.00;100763.25;5085241;28;19916;-56
2023/07/30 00:41:36;;;;;;;;;;;;;;;19.37;100.00;100765.53;5114885;28;19920;-59
2023/07/30 00:44:02;;;;;;;;;;;;;;;19.54;100.00;100768.16;5078711;28;19917;-58
2023/07/30 00:46:27;;;;;;;;;;;;;;;19.22;100.00;100753.47;5081572;28;19920;-58
2023/07/30 00:48:53;;;;;;;;;;;;;;;19.30;100.00;100758.44;5111675;28;19928;-57
2023/07/30 00:51:19;;;;;;;;;;;;;;;19.46;100.00;100762.09;5098495;28;19927;-55
2023/07/30 00:53:45;;;;;;;;;;;;;;;19.21;100.00;100765.41;5081652;28;19932;-59
2023/07/30 00:56:11;;;;;;;;;;;;;;;19.46;100.00;100756.69;5096122;28;19988;-58
2023/07/30 00:58:36;;;;;;;;;;;;;;;19.47;100.00;100763.75;5096304;28;19983;-55
2023/07/30 01:01:03;;;;;;;;;;;;;;;19.30;100.00;100760.34;5114052;28;19912;-57
2023/07/30 01:03:28;;;;;;;;;;;;;;;19.21;100.00;100754.56;5097844;28;19920;-56
2023/07/30 01:05:54;;;;;;;;;;;;;;;19.31;100.00;100761.97;5112158;28;19983;-57
2023/07/30 01:08:19;;;;;;;;;;;;;;;19.09;100.00;100762.84;5111131;28;19955;-59
2023/07/30 01:10:45;;;;;;;;;;;;;;;19.00;100.00;100769.75;5106506;28;19923;-56
2023/07/30 01:13:11;;;;;;;;;;;;;;;19.04;100.00;100774.44;5098292;28;19924;-58
2023/07/30 01:15:38;;;;;;;;;;;;;;;19.11;100.00;100779.66;5086332;28;19924;-58
2023/07/30 01:18:03;;;;;;;;;;;;;;;19.24;100.00;100772.19;5101790;28;19917;-58
2023/07/30 01:20:31;;;;;;;;;;;;;;;19.31;100.00;100780.97;5104393;28;19947;-58
2023/07/30 01:23:00;;;;;;;;;;;;;;;19.21;100.00;100787.09;5105299;28;19939;-57
2023/07/30 01:25:28;;;;;;;;;;;;;;;19.02;100.00;100783.88;5095091;28;19938;-58
2023/07/30 01:27:56;;;;;;;;;;;;;;;18.98;100.00;100793.56;5111433;28;19927;-57
2023/07/30 01:30:25;;;;;;;;;;;;;;;18.95;100.00;100784.06;5095154;28;19927;-58
2023/07/30 01:32:51;;;;;;;;;;;;;;;19.01;100.00;100791.19;5103619;28;19938;-58
2023/07/30 01:35:18;;;;;;;;;;;;;;;18.97;100.00;100797.34;5094475;28;19923;-56
2023/07/30 01:37:44;;;;;;;;;;;;;;;18.71;100.00;100800.56;5076575;28;19916;-58
2023/07/30 01:40:10;;;;;;;;;;;;;;;18.80;100.00;100795.53;5076265;28;19916;-56
2023/07/30 01:42:36;;;;;;;;;;;;;;;18.84;100.00;100798.53;5081842;28;19939;-56
2023/07/30 01:45:02;;;;;;;;;;;;;;;18.84;100.00;100802.09;5069722;28;19921;-58
2023/07/30 01:47:28;;;;;;;;;;;;;;;18.71;100.00;100805.16;5070536;28;19948;-55
2023/07/30 01:49:53;;;;;;;;;;;;;;;18.84;100.00;100806.66;5111366;28;19983;-56
2023/07/30 01:52:18;;;;;;;;;;;;;;;18.81;100.00;100810.72;5107761;28;19923;-57
2023/07/30 01:54:44;;;;;;;;;;;;;;;18.76;100.00;100806.06;5077587;28;19916;-58
2023/07/30 01:57:12;;;;;;;;;;;;;;;18.96;100.00;100811.97;5077309;28;19943;-57
2023/07/30 01:59:37;;;;;;;;;;;;;;;18.89;100.00;100801.31;5079999;28;19977;-57
2023/07/30 02:02:03;;;;;;;;;;;;;;;18.92;100.00;100812.47;5091266;28;19916;-56
2023/07/30 02:04:29;;;;;;;;;;;;;;;19.11;100.00;100814.06;5094600;28;20107;-56
2023/07/30 02:06:54;;;;;;;;;;;;;;;19.01;100.00;100810.16;5076774;28;19943;-57
2023/07/30 02:09:20;;;;;;;;;;;;;;;19.12;100.00;100802.97;5095040;28;19917;-56
2023/07/30 02:11:45;;;;;;;;;;;;;;;18.90;100.00;100800.22;5120282;28;19912;-58
2023/07/30 02:14:11;;;;;;;;;;;;;;;18.91;100.00;100810.00;5077253;28;19932;-60
2023/07/30 02:16:36;;;;;;;;;;;;;;;18.97;100.00;100797.34;5110574;28;19921;-57
2023/07/30 02:19:03;;;;;;;;;;;;;;;19.22;100.00;100799.56;5094543;28;19952;-57
2023/07/30 02:21:30;;;;;;;;;;;;;;;19.35;100.00;100790.22;5099528;28;19982;-58
2023/07/30 02:23:55;;;;;;;;;;;;;;;19.14;100.00;100787.28;5096425;28;19920;-59
2023/07/30 02:26:20;;;;;;;;;;;;;;;19.18;100.00;100787.59;5110556;28;19927;-54
2023/07/30 02:28:45;;;;;;;;;;;;;;;19.00;100.00;100792.28;5076324;28;19921;-58
2023/07/30 02:31:11;;;;;;;;;;;;;;;18.96;100.00;100785.69;5097637;28;19927;-60
2023/07/30 02:33:36;;;;;;;;;;;;;;;18.78;100.00;100786.81;5095617;28;19975;-56
2023/07/30 02:36:02;;;;;;;;;;;;;;;18.99;100.00;100782.50;5077057;28;19925;-58
2023/07/30 02:38:27;;;;;;;;;;;;;;;18.84;100.00;100774.16;5093962;28;19920;-54
2023/07/30 02:40:52;;;;;;;;;;;;;;;18.77;100.00;100783.31;5076501;28;19921;-56
2023/07/30 02:43:17;;;;;;;;;;;;;;;18.58;100.00;100769.25;5077194;28;19987;-53
2023/07/30 02:45:46;;;;;;;;;;;;;;;18.75;100.00;100779.19;5097670;28;19916;-58
2023/07/30 02:48:11;;;;;;;;;;;;;;;18.74;100.00;100769.44;5098239;28;19943;-58
2023/07/30 02:50:37;;;;;;;;;;;;;;;18.77;100.00;100782.47;5105461;28;19920;-59
2023/07/30 02:53:03;;;;;;;;;;;;;;;17.42;100.00;100774.19;5091925;28;19924;-56
2023/07/30 02:55:28;;;;;;;;;;;;;;;16.90;100.00;100781.31;5099003;28;20015;-58
2023/07/30 02:57:53;;;;;;;;;;;;;;;16.87;100.00;100781.78;5102999;28;19974;-56
2023/07/30 03:00:19;;;;;;;;;;;;;;;16.80;100.00;100787.31;5087676;28;19917;-55
2023/07/30 03:02:44;;;;;;;;;;;;;;;16.77;100.00;100785.09;5086823;28;19916;-55
2023/07/30 03:05:10;;;;;;;;;;;;;;;16.70;100.00;100790.63;5086929;28;19923;-58
2023/07/30 03:07:35;;;;;;;;;;;;;;;16.81;100.00;100786.25;5081939;28;19948;-57
2023/07/30 03:10:01;;;;;;;;;;;;;;;16.98;100.00;100789.06;5113793;28;19916;-59
2023/07/30 03:12:27;;;;;;;;;;;;;;;16.95;100.00;100794.91;5101037;28;19920;-57
2023/07/30 03:14:52;;;;;;;;;;;;;;;18.89;100.00;100779.63;5100790;28;19924;-57
2023/07/30 03:17:18;;;;;;;;;;;;;;;19.01;100.00;100782.25;5115366;28;19921;-58
2023/07/30 03:19:43;;;;;;;;;;;;;;;19.08;100.00;100782.88;5097450;28;19917;-57
2023/07/30 03:22:09;;;;;;;;;;;;;;;19.45;100.00;100792.22;5081324;28;20005;-56
2023/07/30 03:24:34;;;;;;;;;;;;;;;19.24;100.00;100792.00;5080102;28;19960;-56
2023/07/30 03:27:00;;;;;;;;;;;;;;;19.58;100.00;100791.78;5079809;28;19951;-57
2023/07/30 03:29:26;;;;;;;;;;;;;;;19.95;100.00;100792.91;5097826;28;19939;-56
2023/07/30 03:31:51;;;;;;;;;;;;;;;19.58;100.00;100797.19;5098745;28;19920;-57
2023/07/30 03:34:18;;;;;;;;;;;;;;;19.75;100.00;100798.97;5086714;28;19920;-57
2023/07/30 03:36:43;;;;;;;;;;;;;;;19.67;100.00;100799.47;5106941;28;19920;-58
2023/07/30 03:39:09;;;;;;;;;;;;;;;19.57;100.00;100803.69;5080114;28;19917;-56
2023/07/30 03:41:35;;;;;;;;;;;;;;;19.55;100.00;100805.84;5096913;28;19923;-57
2023/07/30 03:44:00;;;;;;;;;;;;;;;19.46;100.00;100804.69;5102391;28;19923;-57
2023/07/30 03:46:25;;;;;;;;;;;;;;;19.18;100.00;100812.00;5079815;28;19916;-56
2023/07/30 03:48:51;;;;;;;;;;;;;;;19.43;100.00;100810.63;5080386;28;19920;-56
2023/07/30 03:51:18;;;;;;;;;;;;;;;19.42;100.00;100814.41;5099108;28;20281;-58
2023/07/30 03:53:43;;;;;;;;;;;;;;;19.31;100.00;100803.44;5113435;28;19912;-57
2023/07/30 03:56:09;;;;;;;;;;;;;;;19.51;100.00;100807.44;5096348;28;19932;-57
2023/07/30 03:58:35;;;;;;;;;;;;;;;19.73;100.00;100806.56;5096799;28;19939;-57
2023/07/30 04:01:01;;;;;;;;;;;;;;;19.62;100.00;100811.91;5096904;28;19948;-57
2023/07/30 04:03:27;;;;;;;;;;;;;;;19.80;100.00;100814.50;5098771;28;19938;-57
2023/07/30 04:05:53;;;;;;;;;;;;;;;19.86;100.00;100819.72;5096941;28;19920;-58
2023/07/30 04:08:19;;;;;;;;;;;;;;;19.64;100.00;100819.78;5096888;28;19917;-56
2023/07/30 04:10:44;;;;;;;;;;;;;;;19.82;100.00;100820.47;5078472;28;20003;-57
2023/07/30 04:13:10;;;;;;;;;;;;;;;19.87;100.00;100815.91;5086481;28;19924;-56
2023/07/30 04:15:35;;;;;;;;;;;;;;;19.85;100.00;100828.09;5095740;28;19963;-55
2023/07/30 04:18:01;;;;;;;;;;;;;;;19.73;100.00;100815.53;5096969;28;19983;-55
2023/07/30 04:20:26;;;;;;;;;;;;;;;19.78;100.00;100822.88;5079250;28;19932;-57
2023/07/30 04:22:54;;;;;;;;;;;;;;;19.66;100.00;100827.66;5087845;28;19923;-55
2023/07/30 04:25:19;;;;;;;;;;;;;;;19.63;100.00;100818.97;5100563;28;19924;-56
2023/07/30 04:27:44;;;;;;;;;;;;;;;19.48;100.00;100821.53;5096811;28;19937;-58
2023/07/30 04:30:10;;;;;;;;;;;;;;;19.65;100.00;100829.53;5078741;28;19913;-57
2023/07/30 04:32:35;;;;;;;;;;;;;;;19.71;100.00;100819.56;5095480;28;19917;-57
2023/07/30 04:35:01;;;;;;;;;;;;;;;18.10;100.00;100822.97;5082956;28;19921;-58
2023/07/30 04:37:26;;;;;;;;;;;;;;;19.77;100.00;100832.94;5096501;28;19920;-57
2023/07/30 04:39:53;;;;;;;;;;;;;;;19.94;100.00;100836.63;5076341;28;19927;-55
2023/07/30 04:42:19;;;;;;;;;;;;;;;19.79;100.00;100838.06;5102558;28;19981;-57
2023/07/30 04:44:44;;;;;;;;;;;;;;;19.97;100.00;100841.53;5078708;28;19917;-52
2023/07/30 04:47:13;;;;;;;;;;;;;;;18.49;100.00;100836.56;5112215;28;19934;-58
2023/07/30 04:49:40;;;;;;;;;;;;;;;20.25;100.00;100836.84;5112109;28;19924;-57
2023/07/30 04:52:06;;;;;;;;;;;;;;;20.11;100.00;100842.75;5103834;28;19994;-58
2023/07/30 04:54:32;;;;;;;;;;;;;;;20.22;100.00;100849.06;5094095;28;19912;-57
2023/07/30 04:56:57;;;;;;;;;;;;;;;20.42;100.00;100842.94;5096264;28;20148;-58
2023/07/30 04:59:23;;;;;;;;;;;;;;;20.20;100.00;100837.66;5078215;28;19924;-55
2023/07/30 05:01:48;;;;;;;;;;;;;;;19.95;100.00;100847.19;5073026;28;19916;-56
2023/07/30 05:04:14;;;;;;;;;;;;;;;20.10;100.00;100845.69;5078353;28;19920;-59
2023/07/30 05:06:39;;;;;;;;;;;;;;;20.55;100.00;100846.28;5103568;28;19923;-58
2023/07/30 05:09:05;;;;;;;;;;;;;;;20.84;100.00;100848.66;5098391;28;20007;-55
2023/07/30 05:11:30;;;;;;;;;;;;;;;20.65;100.00;100851.78;5096114;28;19916;-58
2023/07/30 05:13:56;;;;;;;;;;;;;;;20.70;100.00;100854.50;5101868;28;19916;-58
2023/07/30 05:16:21;;;;;;;;;;;;;;;20.41;100.00;100852.19;5099811;28;20011;-58
2023/07/30 05:18:47;;;;;;;;;;;;;;;20.68;100.00;100862.13;5082583;28;19923;-57
2023/07/30 05:21:12;;;;;;;;;;;;;;;20.59;100.00;100863.69;5095681;28;19980;-54
2023/07/30 05:23:38;;;;;;;;;;;;;;;20.34;100.00;100873.31;5098976;28;19916;-54
2023/07/30 05:26:03;;;;;;;;;;;;;;;21.01;100.00;100860.16;5095347;28;19916;-57
2023/07/30 05:28:28;;;;;;;;;;;;;;;20.58;100.00;100870.22;5095303;28;19938;-56
2023/07/30 05:30:54;;;;;;;;;;;;;;;20.27;100.00;100857.25;5095406;28;19917;-58
2023/07/30 05:33:19;;;;;;;;;;;;;;;20.18;100.00;100864.22;5095344;28;19916;-59
2023/07/30 05:35:47;;;;;;;;;;;;;;;20.29;100.00;100868.66;5095124;28;19920;-58
2023/07/30 05:38:13;;;;;;;;;;;;;;;20.58;100.00;100853.91;5096673;28;19917;-59
2023/07/30 05:40:38;;;;;;;;;;;;;;;20.55;100.00;100865.31;5095292;28;19912;-59
2023/07/30 05:43:04;;;;;;;;;;;;;;;20.09;100.00;100854.91;5078099;28;19916;-59
2023/07/30 05:45:30;;;;;;;;;;;;;;;20.10;100.00;100862.81;5105640;28;19916;-58
2023/07/30 05:47:55;;;;;;;;;;;;;;;20.45;100.00;100853.28;5106672;28;19922;-58
2023/07/30 05:50:20;;;;;;;;;;;;;;;20.29;100.00;100859.69;5095219;28;19920;-58
2023/07/30 05:52:46;;;;;;;;;;;;;;;20.35;100.00;100870.31;5095276;28;19931;-58
2023/07/30 05:55:12;;;;;;;;;;;;;;;20.33;100.00;100861.63;5096840;28;19923;-60
2023/07/30 05:57:37;;;;;;;;;;;;;;;20.65;100.00;100868.06;5095062;28;19945;-58
2023/07/30 06:00:03;;;;;;;;;;;;;;;20.80;100.00;100863.84;5095004;28;19916;-58
2023/07/30 06:02:37;;;;;;;;;;;;;;;21.03;100.00;100871.56;5095490;28;19916;-57
2023/07/30 06:05:03;;;;;;;;;;;;;;;21.26;100.00;100869.50;5098622;28;19917;-58
2023/07/30 06:07:28;;;;;;;;;;;;;;;21.26;100.00;100872.22;5094757;28;19924;-54
2023/07/30 06:09:53;;;;;;;;;;;;;;;21.06;100.00;100868.31;5095040;28;19921;-58
2023/07/30 06:12:19;;;;;;;;;;;;;;;21.01;100.00;100862.88;5093566;28;19924;-56
2023/07/30 06:14:44;;;;;;;;;;;;;;;20.55;100.00;100862.59;5095415;28;19920;-59
2023/07/30 06:17:10;;;;;;;;;;;;;;;20.39;100.00;100859.78;5097156;28;19920;-58
2023/07/30 06:19:35;;;;;;;;;;;;;;;20.67;100.00;100863.19;5094755;28;19956;-57
2023/07/30 06:22:01;;;;;;;;;;;;;;;20.39;100.00;100864.38;5094428;28;19917;-58
2023/07/30 06:24:26;;;;;;;;;;;;;;;20.55;100.00;100866.13;5102057;28;19930;-57
2023/07/30 06:26:52;;;;;;;;;;;;;;;20.39;100.00;100873.34;5098770;28;19916;-58
2023/07/30 06:29:17;;;;;;;;;;;;;;;20.58;100.00;100859.34;5094618;28;19920;-57
2023/07/30 06:31:43;;;;;;;;;;;;;;;21.15;100.00;100862.38;5094486;28;19944;-57
2023/07/30 06:34:09;;;;;;;;;;;;;;;20.68;100.00;100862.13;5098481;28;19916;-56
2023/07/30 06:36:35;;;;;;;;;;;;;;;20.89;100.00;100862.25;5103095;28;19920;-55
2023/07/30 06:39:00;;;;;;;;;;;;;;;21.42;100.00;100867.63;5104183;28;19916;-56
2023/07/30 06:41:26;;;;;;;;;;;;;;;20.64;100.00;100871.88;5094441;28;19916;-59
2023/07/30 06:43:51;;;;;;;;;;;;;;;20.80;100.00;100872.81;5096364;28;19916;-56
2023/07/30 06:46:16;;;;;;;;;;;;;;;21.01;100.00;100875.63;5094075;28;19919;-57
2023/07/30 06:48:42;;;;;;;;;;;;;;;21.20;100.00;100862.38;5094479;28;19916;-58
2023/07/30 06:51:07;;;;;;;;;;;;;;;21.49;100.00;100861.94;5094423;28;19925;-59
2023/07/30 06:53:33;;;;;;;;;;;;;;;21.35;100.00;100869.78;5094421;28;19944;-57
2023/07/30 06:55:58;;;;;;;;;;;;;;;20.97;100.00;100867.19;5094374;28;20536;-57
2023/07/30 06:58:24;;;;;;;;;;;;;;;21.18;100.00;100875.41;5097217;28;19916;-56
2023/07/30 07:00:49;;;;;;;;;;;;;;;21.34;100.00;100868.97;5094547;28;19948;-55
2023/07/30 07:03:15;;;;;;;;;;;;;;;21.42;100.00;100869.50;5094206;28;19923;-58
2023/07/30 07:05:40;;;;;;;;;;;;;;;21.54;100.00;100864.66;5105613;28;19922;-56
2023/07/30 07:08:06;;;;;;;;;;;;;;;21.20;100.00;100873.25;5094356;28;19916;-57
2023/07/30 07:10:31;;;;;;;;;;;;;;;21.56;100.00;100876.09;5094296;28;19924;-56
2023/07/30 07:12:56;;;;;;;;;;;;;;;21.56;100.00;100870.66;5096087;28;19974;-57
2023/07/30 07:15:22;;;;;;;;;;;;;;;21.49;100.00;100870.09;5102578;28;19916;-59
2023/07/30 07:17:47;;;;;;;;;;;;;;;21.67;100.00;100871.50;5094315;28;19983;-58
2023/07/30 07:20:13;;;;;;;;;;;;;;;21.27;100.00;100870.28;5093868;28;19920;-58
2023/07/30 07:22:39;;;;;;;;;;;;;;;21.55;100.00;100877.19;5094065;28;19916;-58
2023/07/30 07:25:04;;;;;;;;;;;;;;;21.71;100.00;100874.53;5097130;28;19944;-59
2023/07/30 07:27:30;;;;;;;;;;;;;;;21.78;100.00;100880.50;5094078;28;19916;-56
2023/07/30 07:29:56;;;;;;;;;;;;;;;21.48;100.00;100869.25;5094102;28;19923;-56
2023/07/30 07:32:22;;;;;;;;;;;;;;;21.37;100.00;100894.81;5095276;28;19931;-57
2023/07/30 07:34:48;;;;;;;;;;;;;;;21.40;100.00;100899.72;5102539;28;19983;-59
2023/07/30 07:37:15;;;;;;;;;;;;;;;21.20;100.00;100884.13;5102166;28;19920;-58
2023/07/30 07:39:41;;;;;;;;;;;;;;;21.51;100.00;100891.56;5097266;28;19922;-57
2023/07/30 07:42:06;;;;;;;;;;;;;;;21.46;100.00;100887.75;5096686;28;19951;-58
2023/07/30 07:44:31;;;;;;;;;;;;;;;21.24;100.00;100896.13;5099238;28;19931;-56
2023/07/30 07:46:57;;;;;;;;;;;;;;;21.34;100.00;100900.78;5095538;28;19935;-58
2023/07/30 07:49:22;;;;;;;;;;;;;;;21.47;100.00;100891.31;5097167;28;19983;-57
2023/07/30 07:51:48;;;;;;;;;;;;;;;21.39;100.00;100898.09;5096126;28;19927;-57
2023/07/30 07:54:13;;;;;;;;;;;;;;;21.82;100.00;100897.94;5095476;28;19928;-57
2023/07/30 07:56:39;;;;;;;;;;;;;;;21.68;100.00;100900.38;5102492;28;19956;-58
2023/07/30 07:59:04;;;;;;;;;;;;;;;22.03;100.00;100895.25;5096919;28;19935;-58
2023/07/30 08:01:29;;;;;;;;;;;;;;;22.15;100.00;100903.13;5097153;28;19917;-58
2023/07/30 08:03:55;;;;;;;;;;;;;;;21.92;100.00;100895.25;5096851;28;19939;-59
2023/07/30 08:06:20;;;;;;;;;;;;;;;21.91;100.00;100901.78;5101918;28;19920;-58
2023/07/30 08:08:45;;;;;;;;;;;;;;;22.05;100.00;100903.94;5103249;28;19980;-58
2023/07/30 08:11:11;;;;;;;;;;;;;;;21.76;100.00;100896.31;5096524;28;19917;-57
2023/07/30 08:13:37;;;;;;;;;;;;;;;21.99;100.00;100913.22;5096938;28;19924;-56
2023/07/30 08:16:02;;;;;;;;;;;;;;;22.19;100.00;100899.59;5097833;28;19962;-60
2023/07/30 08:18:27;;;;;;;;;;;;;;;22.77;100.00;100895.72;5096489;28;19999;-59
2023/07/30 08:20:53;;;;;;;;;;;;;;;22.38;100.00;100890.88;5096119;28;19932;-58
2023/07/30 08:23:19;;;;;;;;;;;;;;;22.80;100.00;100890.81;5096206;28;19916;-57
2023/07/30 08:25:44;;;;;;;;;;;;;;;22.46;100.00;100898.53;5097545;28;19951;-58
2023/07/30 08:28:10;;;;;;;;;;;;;;;22.72;100.00;100898.47;5096597;28;19969;-58
2023/07/30 08:30:35;;;;;;;;;;;;;;;22.81;100.00;100892.44;5096122;28;19924;-58
2023/07/30 08:33:00;;;;;;;;;;;;;;;22.67;100.00;100886.75;5096933;28;19916;-57
2023/07/30 08:35:29;;;;;;;;;;;;;;;22.49;100.00;100889.00;5095719;28;19947;-56
2023/07/30 08:37:54;;;;;;;;;;;;;;;;;;5074462;28;19928;-57
2023/07/30 08:40:23;;;;;;;;;;;;;;;22.22;100.00;100897.44;5088497;28;19920;-58
2023/07/30 08:42:50;;;;;;;;;;;;;;;22.04;100.00;100902.31;5094403;28;19920;-56
2023/07/30 08:45:16;;;;;;;;;;;;;;;22.19;100.00;100904.22;5090858;28;19916;-58
2023/07/30 08:47:41;;;;;;;;;;;;;;;22.40;100.00;100907.78;5081003;28;19980;-58
2023/07/30 08:50:07;;;;;;;;;;;;;;;22.69;100.00;100912.66;5083387;28;19923;-57
2023/07/30 08:52:33;;;;;;;;;;;;;;;22.52;100.00;100906.69;5094178;28;19916;-59
2023/07/30 08:55:01;;;;;;;;;;;;;;;22.57;100.00;100903.94;5089406;28;19913;-59
2023/07/30 08:57:28;;;;;;;;;;;;;;;22.37;100.00;100905.56;5077756;28;19962;-57
2023/07/30 08:59:58;;;;;;;;;;;;;;;22.87;100.00;100907.72;5068987;28;19983;-59
2023/07/30 09:02:26;;;;;;;;;;;;;;;23.15;100.00;100908.16;5095759;28;19916;-59
2023/07/30 09:04:56;;;;;;;;;;;;;;;22.80;100.00;100908.00;5086558;28;19920;-57
2023/07/30 09:07:23;;;;;;;;;;;;;;;23.12;100.00;100908.72;5098403;28;19920;-59
2023/07/30 09:09:49;;;;;;;;;;;;;;;23.47;100.00;100904.22;5090964;28;19928;-59
2023/07/30 09:12:14;;;;;;;;;;;;;;;23.66;100.00;100903.56;5085611;28;19998;-57
2023/07/30 09:14:44;;;;;;;;;;;;;;;23.59;100.00;100909.34;5095385;28;19943;-57
2023/07/30 09:17:10;;;;;;;;;;;;;;;23.85;100.00;100904.53;5104915;28;20085;-58
2023/07/30 09:19:35;;;;;;;;;;;;;;;23.87;100.00;100905.06;5084817;28;19936;-59
2023/07/30 09:22:04;;;;;;;;;;;;;;;24.03;100.00;100907.72;5095792;28;19912;-59
2023/07/30 09:24:30;;;;;;;;;;;;;;;24.44;100.00;100903.81;5095632;28;19927;-58
2023/07/30 09:26:57;;;;;;;;;;;;;;;23.15;100.00;100908.16;5101762;28;19920;-57
2023/07/30 09:29:22;;;;;;;;;;;;;;;22.90;100.00;100909.88;5084268;28;19939;-56
2023/07/30 09:31:50;;;;;;;;;;;;;;;23.14;100.00;100912.00;5084808;28;19924;-59
2023/07/30 09:34:18;;;;;;;;;;;;;;;23.14;100.00;100922.91;5077901;28;19912;-58
2023/07/30 09:36:44;;;;;;;;;;;;;;;23.96;100.00;100913.47;5097144;28;19920;-60
2023/07/30 09:39:21;;;;;;;;;;;;;;;23.47;100.00;100926.06;5091344;28;19924;-60
2023/07/30 09:41:47;;;;;;;;;;;;;;;23.53;100.00;100938.59;5095038;28;19917;-59
2023/07/30 09:44:13;;;;;;;;;;;;;;;23.32;100.00;100930.50;5086012;28;19923;-59
2023/07/30 09:46:45;;;;;;;;;;;;;;;24.04;100.00;100933.94;5086440;28;19992;-60
2023/07/30 09:49:10;;;;;;;;;;;;;;;23.99;100.00;100942.13;5087941;28;19916;-59
2023/07/30 09:51:39;;;;;;;;;;;;;;;23.95;100.00;100932.88;5095252;28;19916;-60
2023/07/30 09:54:10;;;;;;;;;;;;;;;24.08;100.00;100945.09;5094868;28;19948;-59
2023/07/30 09:56:36;;;;;;;;;;;;;;;23.99;100.00;100947.59;5084653;28;19920;-58
2023/07/30 09:59:02;;;;;;;;;;;;;;;24.08;100.00;100937.72;5095007;28;19917;-61
2023/07/30 10:01:28;;;;;;;;;;;;;;;24.57;100.00;100946.91;5074171;28;19931;-59
2023/07/30 10:03:57;;;;;;;;;;;;;;;24.41;100.00;100962.59;5088726;28;19920;-59
2023/07/30 10:06:29;;;;;;;;;;;;;;;23.99;100.00;100947.59;5091128;28;19947;-59
2023/07/30 10:08:55;;;;;;;;;;;;;;;23.84;100.00;100973.06;5086568;28;20407;-58
2023/07/30 10:11:21;;;;;;;;;;;;;;;23.52;100.00;100966.97;5094509;28;19927;-59
2023/07/30 10:13:47;;;;;;;;;;;;;;;23.16;100.00;100950.72;5094888;28;19952;-59
2023/07/30 10:16:13;;;;;;;;;;;;;;;23.36;100.00;100946.31;5096151;28;19924;-60
2023/07/30 10:18:43;;;;;;;;;;;;;;;23.27;100.00;100960.50;5116366;28;19923;-59
2023/07/30 10:21:09;;;;;;;;;;;;;;;24.22;100.00;100957.03;5094690;28;19921;-59
2023/07/30 10:23:35;;;;;;;;;;;;;;;24.00;100.00;100949.25;5094372;28;19921;-59
2023/07/30 10:26:10;;;;;;;;;;;;;;;25.04;100.00;100954.66;5095069;28;19921;-60
2023/07/30 10:28:38;;;;;;;;;;;;;;;25.33;100.00;100973.72;5091201;28;20624;-60
2023/07/30 10:31:09;;;;;;;;;;;;;;;25.89;100.00;100962.34;5093200;28;19920;-59
2023/07/30 10:33:45;;;;;;;;;;;;;;;27.61;100.00;100972.75;5098757;28;19927;-60
2023/07/30 10:36:11;;;;;;;;;;;;;;;27.11;100.00;100964.44;5103275;28;19920;-59
2023/07/30 10:38:38;;;;;;;;;;;;;;;26.79;100.00;100972.41;5094845;28;19920;-59
2023/07/30 10:41:05;;;;;;;;;;;;;;;26.90;100.00;100975.81;5094435;28;19977;-59
2023/07/30 10:43:34;;;;;;;;;;;;;;;28.24;100.00;100977.66;5099212;28;19923;-59
2023/07/30 10:45:59;;;;;;;;;;;;;;;27.40;100.00;100980.59;5094589;28;19916;-60
2023/07/30 10:48:35;;;;;;;;;;;;;;;26.73;100.00;100977.16;5105283;28;19916;-59
2023/07/30 10:51:02;;;;;;;;;;;;;;;25.90;100.00;100983.97;5094492;28;19927;-60
2023/07/30 10:53:27;;;;;;;;;;;;;;;25.38;100.00;100983.00;5095553;28;20375;-60
2023/07/30 10:55:54;;;;;;;;;;;;;;;24.75;100.00;100978.19;5088258;28;19924;-60
2023/07/30 10:58:20;;;;;;;;;;;;;;;24.58;100.00;100984.06;5097933;28;19924;-60
2023/07/30 11:00:45;;;;;;;;;;;;;;;24.44;100.00;100999.47;5094509;28;19924;-59
2023/07/30 11:03:11;;;;;;;;;;;;;;;26.70;100.00;100980.53;5094324;28;19978;-61
2023/07/30 11:05:40;;;;;;;;;;;;;;;28.82;94.85;100985.31;5094548;28;19916;-60
2023/07/30 11:08:05;;;;;;;;;;;;;;;28.10;94.27;100977.69;5099252;28;19983;-60
2023/07/30 11:10:30;;;;;;;;;;;;;;;26.51;100.00;100975.09;5097821;28;19920;-60
2023/07/30 11:12:57;;;;;;;;;;;;;;;25.91;100.00;100984.75;5098169;28;19916;-60
2023/07/30 11:15:22;;;;;;;;;;;;;;;25.54;100.00;100978.97;5097747;28;19924;-61
2023/07/30 11:17:49;;;;;;;;;;;;;;;25.19;100.00;100976.34;5101064;28;19921;-60
2023/07/30 11:20:26;;;;;;;;;;;;;;;25.25;100.00;100979.03;5097832;28;19916;-60
2023/07/30 11:22:52;;;;;;;;;;;;;;;25.06;100.00;100982.53;5097406;28;19923;-60
2023/07/30 11:25:17;;;;;;;;;;;;;;;25.43;100.00;100993.88;5097789;28;19917;-59
2023/07/30 11:27:46;;;;;;;;;;;;;;;25.00;100.00;100987.25;5080789;28;19917;-60
2023/07/30 11:30:12;;;;;;;;;;;;;;;26.68;100.00;101004.69;5097483;28;19916;-60
2023/07/30 11:32:37;;;;;;;;;;;;;;;28.85;80.59;101009.47;5097920;28;19916;-60
2023/07/30 11:35:03;;;;;;;;;;;;;;;29.69;76.38;101009.59;5113838;28;19951;-60
2023/07/30 11:37:29;;;;;;;;;;;;;;;29.70;85.07;101013.97;5104187;28;19924;-60
2023/07/30 11:39:55;;;;;;;;;;;;;;;30.27;72.15;101020.47;5100885;28;19923;-60
2023/07/30 11:42:20;;;;;;;;;;;;;;;30.93;66.47;101009.50;5097458;28;19981;-61
2023/07/30 11:44:46;;;;;;;;;;;;;;;30.50;64.21;101008.47;5097501;28;21014;-61
2023/07/30 11:47:20;;;;;;;;;;;;;;;30.57;57.75;101033.59;5101417;28;19916;-59
2023/07/30 11:49:54;;;;;;;;;;;;;;;28.23;68.64;101014.53;5099358;28;19916;-60
2023/07/30 11:52:19;;;;;;;;;;;;;;;27.85;72.51;101018.38;5097028;28;19916;-59
2023/07/30 11:54:45;;;;;;;;;;;;;;;27.47;73.18;101010.41;5097256;28;19927;-60
2023/07/30 11:57:10;;;;;;;;;;;;;;;27.33;76.77;101010.38;5097886;28;19927;-61
2023/07/30 11:59:36;;;;;;;;;;;;;;;27.67;77.34;101002.84;5099750;28;19916;-60
2023/07/30 12:02:01;;;;;;;;;;;;;;;27.15;78.50;101017.59;5096837;28;19975;-60
2023/07/30 12:04:45;;;;;;;;;;;;;;;27.09;80.51;101027.84;5097302;28;19920;-60
2023/07/30 12:07:10;;;;;;;;;;;;;;;26.92;80.41;101022.97;5094121;28;19916;-59
2023/07/30 12:09:38;;;;;;;;;;;;;;;26.89;78.98;101007.09;5097182;28;19916;-60
2023/07/30 12:12:03;;;;;;;;;;;;;;;26.57;81.07;101030.69;5096524;28;19984;-59
2023/07/30 12:14:33;;;;;;;;;;;;;;;26.51;83.66;101026.38;5096976;28;19920;-60
2023/07/30 12:17:01;;;;;;;;;;;;;;;27.20;81.45;101026.56;5096656;28;19920;-61
2023/07/30 12:19:27;;;;;;;;;;;;;;;28.74;70.93;101042.69;5103751;28;19923;-59
2023/07/30 12:21:52;;;;;;;;;;;;;;;27.49;76.35;101032.88;5096557;28;19917;-59